createdAt,value
2022-08-10T00:00:23.635Z,98575.34
2022-08-10T00:02:59.879Z,98577.16
2022-08-10T00:05:43.213Z,98569.22
2022-08-10T00:08:27.343Z,98578.78
2022-08-10T00:11:00.443Z,98585.72
2022-08-10T00:13:34.936Z,98575.97
2022-08-10T00:16:08.198Z,98585.31
2022-08-10T00:18:41.443Z,98583.31
2022-08-10T00:21:14.642Z,98589.25
2022-08-10T00:23:49.229Z,98584.56
2022-08-10T00:26:22.619Z,98581.03
2022-08-10T00:28:55.920Z,98585.06
2022-08-10T00:31:29.080Z,98583.13
2022-08-10T00:34:02.539Z,98580.56
2022-08-10T00:36:35.751Z,98577.22
2022-08-10T00:39:13.676Z,98580.56
2022-08-10T00:42:01.851Z,98582.28
2022-08-10T00:44:43.195Z,98580.34
2022-08-10T00:47:35.548Z,98582.81
2022-08-10T00:50:11.633Z,98580.41
2022-08-10T00:52:45.676Z,98578.13
2022-08-10T00:55:21.104Z,98576.94
2022-08-10T00:57:55.400Z,98576.00
2022-08-10T01:00:29.683Z,98582.69
2022-08-10T01:03:03.022Z,98576.53
2022-08-10T01:05:51.669Z,98579.16
2022-08-10T01:08:32.498Z,98566.09
2022-08-10T01:12:38.352Z,98572.00
2022-08-10T01:14:14.511Z,98568.47
2022-08-10T01:16:55.944Z,98569.06
2022-08-10T01:19:55.626Z,98566.72
2022-08-10T01:23:04.801Z,98562.19
2022-08-10T01:26:11.022Z,98560.53
2022-08-10T01:29:00.216Z,98559.41
2022-08-10T01:31:40.751Z,98568.84
2022-08-10T01:34:21.952Z,98564.88
2022-08-10T01:37:06.318Z,98580.91
2022-08-10T01:39:45.215Z,98574.97
2022-08-10T01:42:21.549Z,98578.41
2022-08-10T01:44:57.925Z,98574.88
2022-08-10T01:47:56.715Z,98579.03
2022-08-10T01:50:34.931Z,98575.38
2022-08-10T01:53:40.054Z,98575.38
2022-08-10T01:56:17.914Z,98580.56
2022-08-10T01:58:57.623Z,98588.19
2022-08-10T02:01:36.432Z,98586.44
2022-08-10T02:04:15.036Z,98584.50
2022-08-10T02:06:52.469Z,98586.00
2022-08-10T02:09:29.678Z,98583.91
2022-08-10T02:12:08.927Z,98580.75
2022-08-10T02:14:47.907Z,98581.66
2022-08-10T02:17:57.491Z,98582.09
2022-08-10T02:20:27.481Z,98581.16
2022-08-10T02:23:09.557Z,98586.06
2022-08-10T02:25:45.168Z,98583.47
2022-08-10T02:28:29.704Z,98580.72
2022-08-10T02:31:11.750Z,98585.81
2022-08-10T02:33:57.841Z,98579.75
2022-08-10T02:36:36.786Z,98578.75
2022-08-10T02:39:11.064Z,98584.81
2022-08-10T02:45:12.377Z,98582.78
2022-08-10T02:45:20.480Z,98584.34
2022-08-10T02:47:52.666Z,98584.84
2022-08-10T02:50:30.446Z,98577.81
2022-08-10T02:53:56.108Z,98575.94
2022-08-10T02:56:12.281Z,98579.50
2022-08-10T02:58:47.771Z,98569.97
2022-08-10T03:01:26.816Z,98573.47
2022-08-10T03:04:03.449Z,98569.00
2022-08-10T03:06:43.788Z,98575.03
2022-08-10T03:09:20.337Z,98569.75
2022-08-10T03:12:34.891Z,98573.28
2022-08-10T03:14:50.901Z,98570.75
2022-08-10T03:17:25.448Z,98571.09
2022-08-10T03:20:35.675Z,98564.38
2022-08-10T03:22:55.340Z,98571.84
2022-08-10T03:25:30.846Z,98578.53
2022-08-10T03:28:04.799Z,98577.59
2022-08-10T03:30:38.870Z,98570.41
2022-08-10T03:33:12.876Z,98575.59
2022-08-10T03:36:43.020Z,98578.78
2022-08-10T03:38:40.478Z,98578.81
2022-08-10T03:41:17.589Z,98580.75
2022-08-10T03:43:54.279Z,98578.03
2022-08-10T03:46:29.431Z,98580.53
2022-08-10T03:49:05.492Z,98570.88
2022-08-10T03:51:38.968Z,98576.69
2022-08-10T03:54:12.434Z,98579.88
2022-08-10T03:56:47.420Z,98580.78
2022-08-10T03:59:21.435Z,98581.59
2022-08-10T04:02:43.559Z,98578.88
2022-08-10T04:04:48.293Z,98585.50
2022-08-10T04:07:21.871Z,98585.34
2022-08-10T04:09:56.432Z,98587.78
2022-08-10T04:12:33.511Z,98587.16
2022-08-10T04:15:08.155Z,98603.56
2022-08-10T04:18:03.540Z,98605.13
2022-08-10T04:20:39.606Z,98602.56
2022-08-10T04:23:18.764Z,98601.72
2022-08-10T04:25:53.372Z,98609.13
2022-08-10T04:28:28.237Z,98598.72
2022-08-10T04:31:04.352Z,98605.34
2022-08-10T04:33:41.543Z,98597.75
2022-08-10T04:36:16.905Z,98609.03
2022-08-10T04:38:51.576Z,98607.41
2022-08-10T04:41:25.415Z,98607.78
2022-08-10T04:44:00.153Z,98610.00
2022-08-10T04:46:42.881Z,98610.59
2022-08-10T04:49:52.161Z,98612.19
2022-08-10T04:52:19.593Z,98608.75
2022-08-10T04:54:52.735Z,98606.44
2022-08-10T04:57:26.191Z,98615.16
2022-08-10T05:00:00.716Z,98614.75
2022-08-10T05:02:34.056Z,98620.44
2022-08-10T05:05:09.015Z,98620.13
2022-08-10T05:07:53.763Z,98620.41
2022-08-10T05:10:29.923Z,98620.09
2022-08-10T05:13:03.099Z,98618.06
2022-08-10T05:15:37.731Z,98616.00
2022-08-10T05:18:11.400Z,98617.00
2022-08-10T05:20:48.474Z,98621.84
2022-08-10T05:23:23.227Z,98615.13
2022-08-10T05:25:56.562Z,98611.44
2022-08-10T05:28:30.795Z,98608.66
2022-08-10T05:31:09.943Z,98612.41
2022-08-10T05:33:48.017Z,98605.75
2022-08-10T05:36:21.680Z,98608.38
2022-08-10T05:38:55.800Z,98604.41
2022-08-10T05:41:29.826Z,98609.63
2022-08-10T05:44:03.684Z,98599.78
2022-08-10T05:46:38.136Z,98595.19
2022-08-10T05:49:11.602Z,98597.47
2022-08-10T05:51:45.198Z,98593.41
2022-08-10T05:54:18.600Z,98597.34
2022-08-10T05:56:54.834Z,98603.22
2022-08-10T06:00:11.249Z,98604.78
2022-08-10T06:02:36.399Z,98601.47
2022-08-10T06:05:11.675Z,98598.25
2022-08-10T06:07:50.750Z,98606.59
2022-08-10T06:10:31.371Z,98591.69
2022-08-10T06:13:30.832Z,98600.88
2022-08-10T06:16:11.332Z,98596.53
2022-08-10T06:18:46.914Z,98607.31
2022-08-10T06:21:21.273Z,98604.81
2022-08-10T06:23:55.611Z,98605.97
2022-08-10T06:26:28.807Z,98607.81
2022-08-10T06:29:11.190Z,98606.28
2022-08-10T06:31:49.928Z,98603.78
2022-08-10T06:34:30.822Z,98607.34
2022-08-10T06:37:07.472Z,98603.91
2022-08-10T06:39:40.763Z,98601.28
2022-08-10T06:42:18.608Z,98601.28
2022-08-10T06:44:59.697Z,98602.13
2022-08-10T06:47:41.201Z,98599.41
2022-08-10T06:50:44.960Z,98598.53
2022-08-10T06:53:17.450Z,98598.41
2022-08-10T06:55:56.786Z,98601.91
2022-08-10T06:58:37.451Z,98606.16
2022-08-10T07:01:17.256Z,98601.63
2022-08-10T07:03:59.980Z,98602.63
2022-08-10T07:06:37.814Z,98594.75
2022-08-10T07:09:12.352Z,98605.97
2022-08-10T07:11:50.997Z,98583.81
2022-08-10T07:14:26.256Z,98592.31
2022-08-10T07:17:00.747Z,98582.63
2022-08-10T07:19:34.877Z,98587.66
2022-08-10T07:23:26.827Z,98597.84
2022-08-10T07:25:26.106Z,98594.00
2022-08-10T07:28:02.028Z,98592.50
2022-08-10T07:30:42.107Z,98585.31
2022-08-10T07:33:18.540Z,98576.22
2022-08-10T07:35:52.972Z,98582.22
2022-08-10T07:38:31.026Z,98585.56
2022-08-10T07:41:07.142Z,98573.09
2022-08-10T07:43:41.786Z,98577.19
2022-08-10T07:46:17.032Z,98576.78
2022-08-10T07:48:55.968Z,98577.59
2022-08-10T07:51:32.452Z,98574.88
2022-08-10T07:54:08.763Z,98582.88
2022-08-10T07:56:48.966Z,98582.03
2022-08-10T07:59:30.259Z,98580.09
2022-08-10T08:02:06.740Z,98569.22
2022-08-10T08:04:41.996Z,98571.94
2022-08-10T08:07:19.418Z,98565.09
2022-08-10T08:10:00.939Z,98560.69
2022-08-10T08:12:38.375Z,98567.94
2022-08-10T08:16:20.343Z,98578.41
2022-08-10T08:18:10.628Z,98570.34
2022-08-10T08:20:45.701Z,98572.59
2022-08-10T08:24:04.978Z,98568.28
2022-08-10T08:26:17.255Z,98559.72
2022-08-10T08:28:52.264Z,98565.97
2022-08-10T08:31:26.576Z,98585.78
2022-08-10T08:34:00.348Z,98582.47
2022-08-10T08:36:35.096Z,98594.19
2022-08-10T08:39:08.546Z,98573.03
2022-08-10T08:42:10.770Z,98571.03
2022-08-10T08:45:01.646Z,98580.88
2022-08-10T08:48:05.607Z,98564.28
2022-08-10T08:50:59.617Z,98585.97
2022-08-10T08:54:02.314Z,98570.06
2022-08-10T08:56:48.211Z,98577.06
2022-08-10T08:59:43.252Z,98564.09
2022-08-10T09:02:35.816Z,98571.03
2022-08-10T09:05:27.605Z,98575.38
2022-08-10T09:09:00.580Z,98567.75
2022-08-10T09:11:50.312Z,98558.06
2022-08-10T09:14:32.538Z,98560.47
2022-08-10T09:17:17.468Z,98558.72
2022-08-10T09:20:00.225Z,98569.38
2022-08-10T09:22:41.906Z,98562.22
2022-08-10T09:25:19.675Z,98547.09
2022-08-10T09:28:05.009Z,98578.81
2022-08-10T09:31:21.525Z,98568.66
2022-08-10T09:36:25.385Z,98566.00
2022-08-10T09:36:58.610Z,98553.84
2022-08-10T09:40:57.001Z,98565.25
2022-08-10T09:43:07.577Z,98540.59
2022-08-10T09:45:56.267Z,98551.16
2022-08-10T09:48:47.005Z,98545.00
2022-08-10T09:51:45.446Z,98560.81
2022-08-10T09:54:49.895Z,98546.91
2022-08-10T09:57:44.352Z,98550.34
2022-08-10T10:00:24.696Z,98556.28
2022-08-10T10:03:17.228Z,98568.72
2022-08-10T10:06:04.956Z,98541.59
2022-08-10T10:08:48.671Z,98546.94
2022-08-10T10:11:45.408Z,98529.34
2022-08-10T10:14:31.525Z,98546.63
2022-08-10T10:17:14.271Z,98541.25
2022-08-10T10:20:05.373Z,98549.31
2022-08-10T10:22:51.965Z,98540.56
2022-08-10T10:25:51.227Z,98539.72
2022-08-10T10:29:19.729Z,98538.69
2022-08-10T10:31:37.230Z,98539.50
2022-08-10T10:34:17.970Z,98534.34
2022-08-10T10:36:53.810Z,98528.03
2022-08-10T10:39:28.214Z,98523.53
2022-08-10T10:42:34.969Z,98530.84
2022-08-10T10:45:19.989Z,98523.81
2022-08-10T10:48:06.398Z,98528.19
2022-08-10T10:50:56.876Z,98509.66
2022-08-10T10:53:38.628Z,98497.06
2022-08-10T10:56:21.425Z,98516.47
2022-08-10T10:59:35.490Z,98534.09
2022-08-10T11:02:10.870Z,98525.53
2022-08-10T11:04:53.997Z,98523.81
2022-08-10T11:07:37.203Z,98517.03
2022-08-10T11:10:33.327Z,98511.81
2022-08-10T11:14:26.344Z,98513.56
2022-08-10T11:16:21.727Z,98514.47
2022-08-10T11:19:07.631Z,98543.38
2022-08-10T11:21:56.493Z,98506.56
2022-08-10T11:24:48.124Z,98528.53
2022-08-10T11:27:34.638Z,98499.66
2022-08-10T11:30:10.878Z,98511.91
2022-08-10T11:32:58.344Z,98494.31
2022-08-10T11:35:41.568Z,98503.03
2022-08-10T11:38:29.657Z,98500.41
2022-08-10T11:42:12.384Z,98514.44
2022-08-10T11:44:22.405Z,98501.31
2022-08-10T11:47:03.456Z,98492.44
2022-08-10T11:49:46.838Z,98501.31
2022-08-10T11:52:29.501Z,98482.00
2022-08-10T11:55:12.559Z,98499.56
2022-08-10T11:57:55.812Z,98490.75
2022-08-10T12:00:36.324Z,98485.50
2022-08-10T12:03:10.880Z,98497.81
2022-08-10T12:05:53.730Z,98489.00
2022-08-10T12:10:03.451Z,98482.00
2022-08-10T12:11:26.451Z,98489.84
2022-08-10T12:14:21.263Z,98489.81
2022-08-10T12:17:04.821Z,98476.75
2022-08-10T12:20:02.310Z,98482.78
2022-08-10T12:22:48.359Z,98467.91
2022-08-10T12:25:56.579Z,98474.88
2022-08-10T12:28:51.497Z,98457.44
2022-08-10T12:31:32.569Z,98474.03
2022-08-10T12:34:21.471Z,98473.09
2022-08-10T12:37:06.044Z,98457.44
2022-08-10T12:40:12.034Z,98464.28
2022-08-10T12:43:13.122Z,98467.88
2022-08-10T12:46:06.969Z,98473.16
2022-08-10T12:48:51.913Z,98481.94
2022-08-10T12:51:30.352Z,98471.38
2022-08-10T12:54:13.588Z,98457.41
2022-08-10T12:57:00.771Z,98444.25
2022-08-10T12:59:43.490Z,98451.16
2022-08-10T13:02:24.264Z,98461.75
2022-08-10T13:05:00.631Z,98441.41
2022-08-10T13:08:25.218Z,98435.22
2022-08-10T13:10:31.422Z,98431.06
2022-08-10T13:13:04.847Z,98442.47
2022-08-10T13:15:48.773Z,98445.84
2022-08-10T13:18:29.443Z,98448.59
2022-08-10T13:21:20.269Z,98435.41
2022-08-10T13:24:04.545Z,98420.50
2022-08-10T13:27:10.884Z,98430.06
2022-08-10T13:29:43.542Z,98428.25
2022-08-10T13:32:25.384Z,98419.53
2022-08-10T13:35:04.958Z,98419.34
2022-08-10T13:37:43.807Z,98402.81
2022-08-10T13:40:21.666Z,98406.38
2022-08-10T13:42:58.462Z,98408.88
2022-08-10T13:45:32.275Z,98394.88
2022-08-10T13:48:14.304Z,98400.06
2022-08-10T13:50:49.090Z,98405.44
2022-08-10T13:53:23.633Z,98407.97
2022-08-10T13:55:59.175Z,98406.22
2022-08-10T13:58:35.113Z,98400.38
2022-08-10T14:01:12.825Z,98385.34
2022-08-10T14:03:47.843Z,98393.19
2022-08-10T14:06:29.850Z,98408.88
2022-08-10T14:09:08.897Z,98393.19
2022-08-10T14:11:45.080Z,98388.63
2022-08-10T14:14:21.191Z,98386.13
2022-08-10T14:16:55.264Z,98391.31
2022-08-10T14:19:43.788Z,98375.66
2022-08-10T14:22:19.535Z,98376.47
2022-08-10T14:25:11.590Z,98381.88
2022-08-10T14:28:03.426Z,98363.47
2022-08-10T14:30:37.500Z,98364.13
2022-08-10T14:33:17.027Z,98353.56
2022-08-10T14:36:19.902Z,98351.75
2022-08-10T14:38:46.018Z,98356.91
2022-08-10T14:42:02.716Z,98349.97
2022-08-10T14:44:22.017Z,98353.53
2022-08-10T14:46:59.414Z,98357.03
2022-08-10T14:49:58.057Z,98360.44
2022-08-10T14:52:28.316Z,98365.84
2022-08-10T14:55:06.370Z,98364.25
2022-08-10T14:58:17.200Z,98347.63
2022-08-10T15:00:49.902Z,98335.25
2022-08-10T15:04:00.813Z,98342.22
2022-08-10T15:06:30.888Z,98335.28
2022-08-10T15:09:12.665Z,98334.31
2022-08-10T15:12:14.169Z,98333.41
2022-08-10T15:14:51.459Z,98332.56
2022-08-10T15:17:28.630Z,98339.69
2022-08-10T15:20:14.450Z,98326.53
2022-08-10T15:22:51.184Z,98324.91
2022-08-10T15:25:27.508Z,98319.50
2022-08-10T15:28:06.701Z,98327.41
2022-08-10T15:30:43.641Z,98322.19
2022-08-10T15:34:02.104Z,98316.84
2022-08-10T15:37:36.051Z,98323.97
2022-08-10T15:40:21.641Z,98326.63
2022-08-10T15:43:00.440Z,98319.66
2022-08-10T15:45:34.641Z,98316.78
2022-08-10T15:48:08.333Z,98314.28
2022-08-10T15:50:46.745Z,98309.06
2022-08-10T15:53:49.367Z,98313.44
2022-08-10T15:56:31.910Z,98309.09
2022-08-10T15:59:14.382Z,98309.97
2022-08-10T16:02:14.959Z,98302.97
2022-08-10T16:04:50.747Z,98308.25
2022-08-10T16:07:38.954Z,98317.09
2022-08-10T16:10:28.666Z,98296.00
2022-08-10T16:13:50.764Z,98299.63
2022-08-10T16:16:05.452Z,98304.06
2022-08-10T16:18:42.455Z,98306.56
2022-08-10T16:21:18.951Z,98302.22
2022-08-10T16:24:14.419Z,98300.41
2022-08-10T16:26:54.100Z,98295.06
2022-08-10T16:29:28.691Z,98299.53
2022-08-10T16:32:04.514Z,98289.03
2022-08-10T16:34:40.019Z,98285.59
2022-08-10T16:37:15.470Z,98289.09
2022-08-10T16:39:57.760Z,98292.63
2022-08-10T16:42:40.615Z,98284.81
2022-08-10T16:45:22.491Z,98292.69
2022-08-10T16:47:57.238Z,98277.84
2022-08-10T16:50:36.485Z,98277.91
2022-08-10T16:53:14.463Z,98277.88
2022-08-10T16:55:52.750Z,98284.97
2022-08-10T16:58:28.562Z,98277.88
2022-08-10T17:01:05.781Z,98273.47
2022-08-10T17:04:05.762Z,98278.78
2022-08-10T17:06:42.886Z,98280.53
2022-08-10T17:09:19.676Z,98286.72
2022-08-10T17:11:58.152Z,98278.81
2022-08-10T17:14:32.167Z,98273.59
2022-08-10T17:17:10.298Z,98272.78
2022-08-10T17:19:46.370Z,98282.47
2022-08-10T17:22:22.283Z,98274.56
2022-08-10T17:25:09.407Z,98280.75
2022-08-10T17:28:05.223Z,98271.13
2022-08-10T17:30:58.178Z,98285.97
2022-08-10T17:33:32.504Z,98278.16
2022-08-10T17:36:06.696Z,98280.72
2022-08-10T17:38:40.019Z,98274.66
2022-08-10T17:41:14.771Z,98286.03
2022-08-10T17:44:02.552Z,98280.78
2022-08-10T17:46:41.674Z,98277.25
2022-08-10T17:49:17.200Z,98282.59
2022-08-10T17:51:54.874Z,98285.19
2022-08-10T17:54:32.368Z,98279.97
2022-08-10T17:57:11.145Z,98287.00
2022-08-10T17:59:47.626Z,98279.19
2022-08-10T18:02:30.111Z,98286.16
2022-08-10T18:05:04.420Z,98298.41
2022-08-10T18:07:43.407Z,98286.19
2022-08-10T18:10:19.787Z,98292.28
2022-08-10T18:12:55.472Z,98287.09
2022-08-10T18:15:32.394Z,98293.22
2022-08-10T18:18:12.579Z,98298.44
2022-08-10T18:20:45.857Z,98294.09
2022-08-10T18:23:27.083Z,98289.69
2022-08-10T18:26:04.614Z,98298.47
2022-08-10T18:28:41.480Z,98296.72
2022-08-10T18:31:21.408Z,98308.94
2022-08-10T18:33:58.216Z,98308.03
2022-08-10T18:36:33.675Z,98308.00
2022-08-10T18:39:08.161Z,98306.25
2022-08-10T18:42:00.470Z,98319.34
2022-08-10T18:44:42.472Z,98321.06
2022-08-10T18:47:27.200Z,98323.66
2022-08-10T18:50:08.001Z,98323.63
2022-08-10T18:52:45.228Z,98324.50
2022-08-10T18:55:27.125Z,98327.94
2022-08-10T18:58:48.888Z,98325.28
2022-08-10T19:01:54.212Z,98335.69
2022-08-10T19:04:49.762Z,98335.69
2022-08-10T19:07:53.831Z,98330.31
2022-08-10T19:10:38.442Z,98343.41
2022-08-10T19:13:20.986Z,98342.47
2022-08-10T19:16:03.093Z,98342.44
2022-08-10T19:18:44.056Z,98348.53
2022-08-10T19:21:24.791Z,98342.31
2022-08-10T19:24:06.186Z,98349.28
2022-08-10T19:26:48.080Z,98344.88
2022-08-10T19:30:08.829Z,98357.81
2022-08-10T19:32:37.922Z,98362.88
2022-08-10T19:35:20.190Z,98369.75
2022-08-10T19:38:08.154Z,98374.06
2022-08-10T19:41:09.523Z,98367.78
2022-08-10T19:44:01.656Z,98369.38
2022-08-10T19:46:42.847Z,98369.22
2022-08-10T19:49:25.300Z,98367.38
2022-08-10T19:52:11.596Z,98366.41
2022-08-10T19:54:56.038Z,98360.91
2022-08-10T19:57:37.010Z,98370.28
2022-08-10T20:00:18.839Z,98360.56
2022-08-10T20:03:07.534Z,98367.34
2022-08-10T20:06:13.027Z,98369.78
2022-08-10T20:08:55.435Z,98373.94
2022-08-10T20:11:44.442Z,98377.25
2022-08-10T20:14:25.191Z,98370.03
2022-08-10T20:17:05.422Z,98378.53
2022-08-10T20:19:52.403Z,98369.72
2022-08-10T20:22:33.590Z,98373.97
2022-08-10T20:25:14.641Z,98387.75
2022-08-10T20:28:00.368Z,98387.44
2022-08-10T20:30:37.906Z,98391.53
2022-08-10T20:33:19.149Z,98385.38
2022-08-10T20:36:01.513Z,98380.00
2022-08-10T20:38:45.438Z,98383.47
2022-08-10T20:41:27.232Z,98388.44
2022-08-10T20:44:14.475Z,98389.13
2022-08-10T20:46:57.739Z,98387.22
2022-08-10T20:49:42.673Z,98380.91
2022-08-10T20:52:16.347Z,98384.13
2022-08-10T20:54:53.730Z,98384.00
2022-08-10T20:58:11.038Z,98377.69
2022-08-10T21:00:58.081Z,98382.88
2022-08-10T21:04:13.385Z,98373.91
2022-08-10T21:07:28.498Z,98367.63
2022-08-10T21:10:19.979Z,98366.44
2022-08-10T21:13:14.475Z,98364.72
2022-08-10T21:16:02.340Z,98368.09
2022-08-10T21:18:51.992Z,98366.03
2022-08-10T21:25:42.041Z,98364.03
2022-08-10T21:28:10.798Z,98372.59
2022-08-10T21:31:12.303Z,98370.69
2022-08-10T21:33:54.876Z,98368.84
2022-08-10T21:36:34.336Z,98378.25
2022-08-10T21:39:14.021Z,98379.03
2022-08-10T21:42:14.819Z,98381.50
2022-08-10T21:45:17.126Z,98384.66
2022-08-10T21:48:30.148Z,98391.38
2022-08-10T21:52:00.492Z,98393.75
2022-08-10T21:54:54.639Z,98390.16
2022-08-10T21:58:00.242Z,98387.41
2022-08-10T22:00:56.516Z,98390.88
2022-08-10T22:03:49.406Z,98383.63
2022-08-10T22:06:52.234Z,98381.91
2022-08-10T22:09:49.307Z,98384.22
2022-08-10T22:12:48.783Z,98372.88
2022-08-10T22:19:01.623Z,98380.50
2022-08-10T22:22:05.775Z,98373.59
2022-08-10T22:25:19.303Z,98383.53
2022-08-10T22:28:17.455Z,98374.72
2022-08-10T22:31:28.474Z,98379.63
2022-08-10T22:31:28.552Z,98365.22
2022-08-10T22:31:32.166Z,98375.28
2022-08-10T22:35:00.563Z,98371.75
2022-08-10T22:38:07.580Z,98378.41
2022-08-10T22:41:04.009Z,98373.22
2022-08-10T22:43:56.715Z,98374.50
2022-08-10T22:46:51.227Z,98382.94
2022-08-10T22:49:25.403Z,98376.72
2022-08-10T22:52:07.733Z,98382.66
2022-08-10T22:55:08.034Z,98378.34
2022-08-10T22:58:03.910Z,98374.59
2022-08-10T23:00:38.715Z,98376.13
2022-08-10T23:03:22.045Z,98381.19
2022-08-10T23:06:01.556Z,98382.56
2022-08-10T23:08:42.756Z,98377.53
2022-08-10T23:11:24.043Z,98376.50
2022-08-10T23:14:02.638Z,98379.88
2022-08-10T23:17:00.726Z,98370.28
2022-08-10T23:19:39.475Z,98378.91
2022-08-10T23:22:17.473Z,98369.22
2022-08-10T23:24:55.091Z,98374.25
2022-08-10T23:27:38.536Z,98371.44
2022-08-10T23:30:17.493Z,98377.19
2022-08-10T23:33:00.314Z,98376.25
2022-08-10T23:36:30.925Z,98372.78
2022-08-10T23:38:44.904Z,98373.56
2022-08-10T23:41:34.502Z,98362.00
2022-08-10T23:44:09.348Z,98364.34
2022-08-10T23:46:46.529Z,98366.69
2022-08-10T23:49:21.214Z,98364.81
2022-08-10T23:51:57.508Z,98368.59
2022-08-10T23:54:32.175Z,98369.16
2022-08-10T23:57:05.760Z,98365.75
2022-08-10T23:59:39.498Z,98370.88
